createdAt,value
2023-08-15T00:03:41.159Z,73.98
2023-08-15T00:06:10.088Z,74.04
2023-08-15T00:08:38.303Z,74.12
2023-08-15T00:11:07.507Z,74.19
2023-08-15T00:13:35.715Z,74.37
2023-08-15T00:16:04.171Z,74.59
2023-08-15T00:18:32.575Z,74.71
2023-08-15T00:21:01.079Z,74.90
2023-08-15T00:23:29.583Z,74.86
2023-08-15T00:25:58.894Z,74.99
2023-08-15T00:28:27.241Z,75.09
2023-08-15T00:30:56.130Z,75.30
2023-08-15T00:33:24.699Z,75.27
2023-08-15T00:35:53.046Z,75.31
2023-08-15T00:38:21.666Z,75.41
2023-08-15T00:40:50.368Z,75.48
2023-08-15T00:43:18.638Z,75.65
2023-08-15T00:45:47.673Z,75.59
2023-08-15T00:48:17.532Z,75.65
2023-08-15T00:50:49.050Z,75.59
2023-08-15T00:53:20.235Z,75.51
2023-08-15T00:55:48.851Z,75.36
2023-08-15T00:58:17.876Z,75.25
2023-08-15T01:00:47.036Z,75.17
2023-08-15T01:03:15.410Z,75.06
2023-08-15T01:05:46.698Z,74.94
2023-08-15T01:08:15.175Z,74.77
2023-08-15T01:10:44.504Z,74.71
2023-08-15T01:13:29.509Z,74.59
2023-08-15T01:15:58.244Z,74.48
2023-08-15T01:18:32.769Z,74.38
2023-08-15T01:21:03.036Z,74.35
2023-08-15T01:23:37.583Z,74.39
2023-08-15T01:26:06.049Z,74.25
2023-08-15T01:28:34.341Z,74.23
2023-08-15T01:31:41.452Z,74.24
2023-08-15T01:34:22.891Z,74.24
2023-08-15T01:37:01.905Z,74.27
2023-08-15T01:39:32.382Z,74.28
2023-08-15T01:42:03.740Z,74.28
2023-08-15T01:44:33.330Z,74.31
2023-08-15T01:47:02.288Z,74.34
2023-08-15T01:49:32.339Z,74.39
2023-08-15T01:52:01.356Z,74.42
2023-08-15T01:54:30.440Z,74.42
2023-08-15T01:56:58.923Z,74.43
2023-08-15T01:59:27.322Z,74.47
2023-08-15T02:01:56.249Z,74.46
2023-08-15T02:04:24.967Z,74.45
2023-08-15T02:06:53.688Z,74.40
2023-08-15T02:09:22.036Z,74.37
2023-08-15T02:11:50.670Z,74.34
2023-08-15T02:14:19.092Z,74.34
2023-08-15T02:16:47.412Z,74.35
2023-08-15T02:19:15.920Z,74.37
2023-08-15T02:21:44.752Z,74.33
2023-08-15T02:24:13.124Z,74.23
2023-08-15T02:26:41.502Z,74.20
2023-08-15T02:29:09.959Z,74.20
2023-08-15T02:31:45.419Z,74.15
2023-08-15T02:34:13.821Z,74.12
2023-08-15T02:36:42.617Z,74.11
2023-08-15T02:39:11.079Z,74.07
2023-08-15T02:41:39.404Z,74.07
2023-08-15T02:44:07.703Z,73.99
2023-08-15T02:46:36.221Z,73.92
2023-08-15T02:49:06.505Z,73.88
2023-08-15T02:51:34.908Z,73.85
2023-08-15T02:54:03.796Z,73.80
2023-08-15T02:56:32.126Z,73.69
2023-08-15T02:59:00.508Z,73.64
2023-08-15T03:01:29.137Z,73.45
2023-08-15T03:03:58.410Z,73.39
2023-08-15T03:06:26.530Z,73.17
2023-08-15T03:08:55.082Z,72.76
2023-08-15T03:11:23.613Z,72.49
2023-08-15T03:13:51.934Z,71.97
2023-08-15T03:16:20.330Z,71.71
2023-08-15T03:18:49.330Z,71.64
2023-08-15T03:21:17.756Z,71.58
2023-08-15T03:23:46.274Z,71.53
2023-08-15T03:26:14.801Z,71.52
2023-08-15T03:28:43.149Z,71.47
2023-08-15T03:31:11.984Z,71.46
2023-08-15T03:33:40.516Z,71.14
2023-08-15T03:36:09.096Z,70.93
2023-08-15T03:38:37.733Z,70.55
2023-08-15T03:41:07.780Z,70.26
2023-08-15T03:43:37.173Z,69.88
2023-08-15T03:46:06.351Z,69.63
2023-08-15T03:48:35.533Z,69.48
2023-08-15T03:51:06.890Z,69.33
2023-08-15T03:53:37.568Z,69.09
2023-08-15T03:56:06.051Z,68.96
2023-08-15T03:58:34.541Z,68.81
2023-08-15T04:01:03.667Z,68.75
2023-08-15T04:03:32.228Z,68.44
2023-08-15T04:06:00.657Z,68.13
2023-08-15T04:08:29.281Z,68.02
2023-08-15T04:10:57.842Z,67.86
2023-08-15T04:13:26.118Z,67.80
2023-08-15T04:15:55.165Z,67.69
2023-08-15T04:18:23.533Z,67.60
2023-08-15T04:20:51.732Z,67.65
2023-08-15T04:23:20.132Z,67.70
2023-08-15T04:25:48.734Z,67.74
2023-08-15T04:28:17.045Z,67.80
2023-08-15T04:30:45.459Z,67.85
2023-08-15T04:33:14.424Z,67.71
2023-08-15T04:35:42.619Z,67.48
2023-08-15T04:38:11.037Z,67.34
2023-08-15T04:40:40.068Z,67.14
2023-08-15T04:43:10.088Z,66.95
2023-08-15T04:45:38.602Z,66.84
2023-08-15T04:48:08.555Z,66.82
2023-08-15T04:50:37.981Z,66.91
2023-08-15T04:53:07.496Z,66.96
2023-08-15T04:55:36.485Z,67.06
2023-08-15T04:58:05.183Z,67.11
2023-08-15T05:00:35.525Z,67.22
2023-08-15T05:03:04.821Z,67.21
2023-08-15T05:05:34.297Z,67.26
2023-08-15T05:08:02.824Z,67.18
2023-08-15T05:10:32.316Z,67.14
2023-08-15T05:13:00.926Z,66.93
2023-08-15T05:15:29.306Z,66.70
2023-08-15T05:17:58.513Z,66.46
2023-08-15T05:20:27.098Z,66.24
2023-08-15T05:22:55.415Z,66.03
2023-08-15T05:25:23.884Z,65.81
2023-08-15T05:27:52.282Z,65.75
2023-08-15T05:30:20.630Z,65.77
2023-08-15T05:32:49.063Z,65.75
2023-08-15T05:35:17.872Z,65.86
2023-08-15T05:37:46.125Z,65.93
2023-08-15T05:40:14.854Z,65.95
2023-08-15T05:42:43.342Z,65.93
2023-08-15T05:45:12.546Z,65.92
2023-08-15T05:47:41.007Z,65.74
2023-08-15T05:50:09.915Z,65.71
2023-08-15T05:52:38.292Z,65.63
2023-08-15T05:55:07.110Z,65.48
2023-08-15T05:57:35.547Z,65.38
2023-08-15T06:00:04.303Z,65.32
2023-08-15T06:02:33.155Z,65.31
2023-08-15T06:05:02.982Z,65.27
2023-08-15T06:07:31.373Z,65.23
2023-08-15T06:10:00.939Z,65.20
2023-08-15T06:12:30.074Z,65.12
2023-08-15T06:14:58.726Z,65.07
2023-08-15T06:17:27.602Z,65.01
2023-08-15T06:19:56.610Z,64.95
2023-08-15T06:22:25.598Z,64.76
2023-08-15T06:24:54.706Z,64.64
2023-08-15T06:27:23.500Z,64.52
2023-08-15T06:29:52.052Z,64.43
2023-08-15T06:32:29.476Z,64.34
2023-08-15T06:34:59.398Z,64.30
2023-08-15T06:37:27.886Z,64.15
2023-08-15T06:39:56.191Z,64.22
2023-08-15T06:42:24.633Z,63.94
2023-08-15T06:45:06.816Z,63.72
2023-08-15T06:47:35.428Z,63.65
2023-08-15T06:50:03.858Z,63.44
2023-08-15T06:52:32.379Z,63.26
2023-08-15T06:55:07.985Z,63.08
2023-08-15T06:57:38.097Z,63.20
2023-08-15T07:00:07.286Z,63.27
2023-08-15T07:02:35.815Z,63.28
2023-08-15T07:05:04.887Z,63.41
2023-08-15T07:07:33.494Z,63.96
2023-08-15T07:10:02.397Z,64.44
2023-08-15T07:12:31.367Z,64.93
2023-08-15T07:14:59.843Z,65.04
2023-08-15T07:17:28.038Z,65.38
2023-08-15T07:19:57.516Z,65.52
2023-08-15T07:22:26.288Z,65.95
2023-08-15T07:24:55.052Z,66.41
2023-08-15T07:27:23.374Z,67.11
2023-08-15T07:29:51.847Z,67.75
2023-08-15T07:32:21.656Z,68.60
2023-08-15T07:34:50.486Z,69.93
2023-08-15T07:37:18.766Z,69.74
2023-08-15T07:39:47.008Z,70.26
2023-08-15T07:42:15.414Z,70.61
2023-08-15T07:44:44.405Z,71.96
2023-08-15T07:47:12.916Z,71.77
2023-08-15T07:49:41.741Z,71.44
2023-08-15T07:52:10.118Z,71.63
2023-08-15T07:54:38.701Z,71.60
2023-08-15T07:57:07.370Z,71.48
2023-08-15T07:59:36.126Z,71.23
2023-08-15T08:02:05.176Z,71.04
2023-08-15T08:04:33.603Z,70.79
2023-08-15T08:07:02.064Z,70.47
2023-08-15T08:09:30.596Z,70.11
2023-08-15T08:11:59.050Z,69.82
2023-08-15T08:14:27.439Z,69.61
2023-08-15T08:16:55.755Z,69.25
2023-08-15T08:19:24.200Z,68.55
2023-08-15T08:21:52.536Z,68.53
2023-08-15T08:24:20.901Z,68.29
2023-08-15T08:26:49.823Z,68.13
2023-08-15T08:29:18.317Z,67.71
2023-08-15T08:31:46.708Z,67.44
2023-08-15T08:34:15.848Z,67.13
2023-08-15T08:36:44.765Z,66.77
2023-08-15T08:39:25.569Z,66.64
2023-08-15T08:42:01.511Z,66.45
2023-08-15T08:44:32.969Z,66.38
2023-08-15T08:47:01.505Z,66.25
2023-08-15T08:49:30.637Z,66.15
2023-08-15T08:52:01.055Z,65.90
2023-08-15T08:54:46.923Z,65.55
2023-08-15T08:57:20.650Z,65.27
2023-08-15T08:59:50.267Z,65.06
2023-08-15T09:02:23.096Z,64.86
2023-08-15T09:04:53.955Z,64.60
2023-08-15T09:07:22.437Z,64.26
2023-08-15T09:09:51.188Z,64.22
2023-08-15T09:12:47.129Z,63.86
2023-08-15T09:15:15.568Z,63.93
2023-08-15T09:17:45.197Z,63.64
2023-08-15T09:20:19.254Z,63.54
2023-08-15T09:22:48.370Z,63.15
2023-08-15T09:25:18.212Z,62.79
2023-08-15T09:27:47.653Z,62.88
2023-08-15T09:30:17.646Z,62.70
2023-08-15T09:32:47.223Z,62.54
2023-08-15T09:35:18.848Z,62.56
2023-08-15T09:37:49.843Z,62.43
2023-08-15T09:40:26.575Z,62.22
2023-08-15T09:42:56.008Z,61.98
2023-08-15T09:45:25.975Z,61.38
2023-08-15T09:47:54.682Z,61.61
2023-08-15T09:50:24.473Z,61.93
2023-08-15T09:52:54.413Z,61.87
2023-08-15T09:55:22.797Z,61.69
2023-08-15T09:57:52.081Z,61.51
2023-08-15T10:00:20.768Z,61.44
2023-08-15T10:02:56.865Z,61.32
2023-08-15T10:05:26.644Z,61.12
2023-08-15T10:07:58.771Z,61.40
2023-08-15T10:10:29.687Z,60.98
2023-08-15T10:12:59.844Z,60.79
2023-08-15T10:15:30.230Z,60.87
2023-08-15T10:17:59.747Z,60.78
2023-08-15T10:20:36.382Z,60.65
2023-08-15T10:23:06.075Z,60.66
2023-08-15T10:25:37.463Z,60.60
2023-08-15T10:28:12.602Z,60.47
2023-08-15T10:30:51.834Z,60.20
2023-08-15T10:33:23.888Z,60.19
2023-08-15T10:36:18.501Z,60.10
2023-08-15T10:38:46.836Z,60.12
2023-08-15T10:41:17.177Z,59.91
2023-08-15T10:43:51.594Z,59.92
2023-08-15T10:46:27.127Z,60.01
2023-08-15T10:49:03.583Z,59.97
2023-08-15T10:51:36.159Z,59.70
2023-08-15T10:54:12.822Z,59.62
2023-08-15T10:56:43.090Z,59.41
2023-08-15T10:59:16.939Z,59.32
2023-08-15T11:01:47.890Z,59.23
2023-08-15T11:04:18.772Z,59.40
2023-08-15T11:06:51.764Z,59.39
2023-08-15T11:09:27.827Z,59.19
2023-08-15T11:12:05.150Z,59.17
2023-08-15T11:14:34.240Z,59.30
2023-08-15T11:17:02.634Z,59.13
2023-08-15T11:19:34.060Z,58.43
2023-08-15T11:22:02.332Z,58.21
2023-08-15T11:24:34.142Z,58.28
2023-08-15T11:27:02.620Z,58.26
2023-08-15T11:29:31.119Z,57.71
2023-08-15T11:32:02.535Z,57.71
2023-08-15T11:34:31.026Z,57.75
2023-08-15T11:36:59.260Z,57.34
2023-08-15T11:39:27.782Z,57.30
2023-08-15T11:41:56.573Z,57.15
2023-08-15T11:44:24.850Z,57.04
2023-08-15T11:46:55.310Z,57.07
2023-08-15T11:49:24.958Z,56.92
2023-08-15T11:52:03.390Z,56.99
2023-08-15T11:54:32.062Z,56.99
2023-08-15T11:57:00.683Z,56.75
2023-08-15T11:59:32.263Z,56.71
2023-08-15T12:02:02.591Z,56.38
2023-08-15T12:04:36.895Z,56.27
2023-08-15T12:07:10.837Z,55.87
2023-08-15T12:09:39.849Z,56.04
2023-08-15T12:12:08.310Z,56.04
2023-08-15T12:14:49.291Z,56.03
2023-08-15T12:17:19.388Z,55.88
2023-08-15T12:19:47.821Z,55.60
2023-08-15T12:22:16.247Z,55.30
2023-08-15T12:24:44.794Z,55.46
2023-08-15T12:27:13.804Z,55.39
2023-08-15T12:30:11.183Z,55.16
2023-08-15T12:32:31.176Z,55.33
2023-08-15T12:34:59.588Z,55.59
2023-08-15T12:37:27.905Z,55.55
2023-08-15T12:39:56.146Z,55.57
2023-08-15T12:42:25.160Z,55.47
2023-08-15T12:44:53.720Z,55.45
2023-08-15T12:47:22.074Z,55.37
2023-08-15T12:49:50.411Z,55.08
2023-08-15T12:52:18.686Z,55.06
2023-08-15T12:54:47.186Z,54.84
2023-08-15T12:57:15.673Z,54.43
2023-08-15T12:59:48.323Z,54.57
2023-08-15T13:02:18.321Z,54.51
2023-08-15T13:04:47.272Z,54.01
2023-08-15T13:07:17.133Z,53.98
2023-08-15T13:09:45.594Z,54.00
2023-08-15T13:12:15.579Z,53.75
2023-08-15T13:14:43.904Z,53.65
2023-08-15T13:17:12.580Z,53.68
2023-08-15T13:19:41.085Z,53.29
2023-08-15T13:22:09.545Z,52.92
2023-08-15T13:24:39.635Z,52.33
2023-08-15T13:27:08.413Z,51.43
2023-08-15T13:29:37.837Z,50.31
2023-08-15T13:32:07.380Z,48.96
2023-08-15T13:34:35.680Z,47.60
2023-08-15T13:37:04.296Z,46.55
2023-08-15T13:39:33.017Z,45.96
2023-08-15T13:42:01.501Z,45.23
2023-08-15T13:44:29.851Z,44.05
2023-08-15T13:46:58.289Z,44.02
2023-08-15T13:49:26.726Z,43.05
2023-08-15T13:51:55.208Z,42.89
2023-08-15T13:54:23.662Z,42.10
2023-08-15T13:56:54.267Z,42.01
2023-08-15T13:59:24.060Z,41.79
2023-08-15T14:01:52.319Z,40.85
2023-08-15T14:04:20.717Z,40.21
2023-08-15T14:06:49.614Z,40.52
2023-08-15T14:09:18.304Z,40.02
2023-08-15T14:11:46.660Z,39.27
2023-08-15T14:14:15.683Z,39.29
2023-08-15T14:16:44.015Z,38.63
2023-08-15T14:19:12.177Z,38.54
2023-08-15T14:21:40.708Z,38.33
2023-08-15T14:24:09.136Z,38.31
2023-08-15T14:26:37.703Z,37.93
2023-08-15T14:29:06.467Z,37.64
2023-08-15T14:31:34.858Z,37.51
2023-08-15T14:34:03.054Z,36.87
2023-08-15T14:36:31.695Z,37.25
2023-08-15T14:38:59.945Z,36.73
2023-08-15T14:41:28.504Z,36.81
2023-08-15T14:43:56.776Z,36.80
2023-08-15T14:46:25.184Z,36.44
2023-08-15T14:48:53.510Z,36.68
2023-08-15T14:51:22.109Z,36.37
2023-08-15T14:53:50.421Z,36.93
2023-08-15T14:56:19.284Z,36.72
2023-08-15T14:58:47.845Z,36.97
2023-08-15T15:01:16.301Z,37.75
2023-08-15T15:03:45.206Z,38.77
2023-08-15T15:06:13.828Z,40.01
2023-08-15T15:08:42.172Z,41.13
2023-08-15T15:11:10.511Z,42.17
2023-08-15T15:13:39.304Z,43.55
2023-08-15T15:16:07.717Z,44.50
2023-08-15T15:18:36.157Z,45.57
2023-08-15T15:21:06.105Z,46.34
2023-08-15T15:23:35.081Z,46.97
2023-08-15T15:26:03.654Z,47.52
2023-08-15T15:28:32.148Z,48.07
2023-08-15T15:31:00.430Z,48.90
2023-08-15T15:33:29.315Z,49.46
2023-08-15T15:35:57.860Z,49.94
2023-08-15T15:38:26.516Z,50.24
2023-08-15T15:40:55.013Z,50.79
2023-08-15T15:43:23.409Z,51.37
2023-08-15T15:45:52.523Z,51.62
2023-08-15T15:48:20.957Z,52.25
2023-08-15T15:50:51.481Z,52.63
2023-08-15T15:53:19.866Z,52.85
2023-08-15T15:55:48.299Z,53.34
2023-08-15T15:58:17.127Z,53.45
2023-08-15T16:00:46.250Z,53.92
2023-08-15T16:03:14.580Z,54.09
2023-08-15T16:05:43.688Z,53.91
2023-08-15T16:08:12.000Z,54.51
2023-08-15T16:10:40.306Z,54.63
2023-08-15T16:13:11.460Z,55.00
2023-08-15T16:15:40.568Z,55.20
2023-08-15T16:18:10.696Z,55.36
2023-08-15T16:20:40.040Z,55.85
2023-08-15T16:23:09.078Z,55.98
2023-08-15T16:25:38.768Z,56.25
2023-08-15T16:28:07.679Z,56.38
2023-08-15T16:30:39.385Z,56.56
2023-08-15T16:33:08.077Z,57.31
2023-08-15T16:35:37.777Z,57.58
2023-08-15T16:38:07.445Z,57.60
2023-08-15T16:40:38.348Z,57.77
2023-08-15T16:43:15.205Z,58.04
2023-08-15T16:45:45.868Z,58.68
2023-08-15T16:48:16.161Z,58.74
2023-08-15T16:50:45.263Z,58.95
2023-08-15T16:53:13.580Z,59.34
2023-08-15T16:55:41.891Z,59.73
2023-08-15T16:58:10.218Z,59.97
2023-08-15T17:00:38.571Z,60.34
2023-08-15T17:03:07.190Z,60.32
2023-08-15T17:05:36.179Z,60.66
2023-08-15T17:08:04.845Z,60.83
2023-08-15T17:10:33.953Z,61.41
2023-08-15T17:13:02.465Z,61.67
2023-08-15T17:15:32.341Z,61.78
2023-08-15T17:18:00.764Z,61.87
2023-08-15T17:20:29.090Z,62.31
2023-08-15T17:22:57.363Z,62.68
2023-08-15T17:25:26.167Z,62.92
2023-08-15T17:27:54.657Z,63.03
2023-08-15T17:30:23.361Z,62.89
2023-08-15T17:32:51.809Z,63.03
2023-08-15T17:35:20.200Z,63.53
2023-08-15T17:37:49.025Z,64.04
2023-08-15T17:40:17.986Z,64.31
2023-08-15T17:42:46.270Z,64.23
2023-08-15T17:45:14.623Z,64.65
2023-08-15T17:47:43.303Z,65.15
2023-08-15T17:50:12.461Z,64.99
2023-08-15T17:52:41.066Z,65.31
2023-08-15T17:55:10.994Z,65.69
2023-08-15T17:57:39.422Z,66.00
2023-08-15T18:00:08.633Z,66.41
2023-08-15T18:02:37.634Z,66.69
2023-08-15T18:05:06.154Z,66.83
2023-08-15T18:07:34.774Z,67.28
2023-08-15T18:10:05.044Z,67.48
2023-08-15T18:12:34.074Z,67.89
2023-08-15T18:15:02.592Z,68.06
2023-08-15T18:17:31.072Z,68.32
2023-08-15T18:19:59.542Z,68.57
2023-08-15T18:22:27.993Z,68.77
2023-08-15T18:24:56.635Z,68.91
2023-08-15T18:27:24.988Z,69.05
2023-08-15T18:29:53.305Z,69.11
2023-08-15T18:32:22.956Z,69.41
2023-08-15T18:34:52.220Z,69.70
2023-08-15T18:37:24.812Z,69.91
2023-08-15T18:39:53.422Z,69.98
2023-08-15T18:42:21.881Z,70.21
2023-08-15T18:44:51.179Z,70.33
2023-08-15T18:47:20.331Z,70.87
2023-08-15T18:49:48.855Z,71.16
2023-08-15T18:52:17.304Z,71.33
2023-08-15T18:54:45.743Z,71.55
2023-08-15T18:57:14.226Z,71.56
2023-08-15T18:59:42.786Z,71.76
2023-08-15T19:02:11.487Z,72.02
2023-08-15T19:04:40.084Z,71.99
2023-08-15T19:07:08.421Z,72.65
2023-08-15T19:09:36.534Z,72.68
2023-08-15T19:12:05.470Z,72.95
2023-08-15T19:14:34.206Z,73.24
2023-08-15T19:17:02.559Z,73.37
2023-08-15T19:19:31.015Z,73.65
2023-08-15T19:21:59.535Z,73.70
2023-08-15T19:24:27.873Z,73.95
2023-08-15T19:26:56.142Z,74.18
2023-08-15T19:29:24.688Z,74.40
2023-08-15T19:31:53.067Z,74.56
2023-08-15T19:34:21.377Z,74.67
2023-08-15T19:36:49.709Z,74.88
2023-08-15T19:39:17.912Z,75.03
2023-08-15T19:41:46.214Z,75.06
2023-08-15T19:44:14.605Z,75.33
2023-08-15T19:46:43.017Z,75.36
2023-08-15T19:49:11.560Z,75.44
2023-08-15T19:51:40.314Z,75.87
2023-08-15T19:54:08.697Z,75.91
2023-08-15T19:56:36.969Z,76.07
2023-08-15T19:59:05.804Z,75.98
2023-08-15T20:01:34.762Z,75.83
2023-08-15T20:04:03.925Z,76.16
2023-08-15T20:06:32.606Z,76.30
2023-08-15T20:09:01.023Z,76.51
2023-08-15T20:11:29.619Z,76.50
2023-08-15T20:13:58.295Z,76.54
2023-08-15T20:16:26.727Z,76.49
2023-08-15T20:18:55.765Z,76.66
2023-08-15T20:21:24.225Z,76.80
2023-08-15T20:23:52.864Z,76.86
2023-08-15T20:26:21.201Z,76.81
2023-08-15T20:28:49.885Z,76.79
2023-08-15T20:31:18.467Z,76.82
2023-08-15T20:33:46.799Z,77.22
2023-08-15T20:36:15.242Z,76.99
2023-08-15T20:38:43.794Z,77.13
2023-08-15T20:41:12.178Z,77.25
2023-08-15T20:43:40.794Z,77.40
2023-08-15T20:46:09.191Z,77.52
2023-08-15T20:48:38.084Z,77.38
2023-08-15T20:51:06.558Z,77.51
2023-08-15T20:53:35.123Z,77.71
2023-08-15T20:56:03.820Z,77.82
2023-08-15T20:58:33.175Z,77.79
2023-08-15T21:01:01.834Z,77.97
2023-08-15T21:03:31.362Z,78.09
2023-08-15T21:06:00.009Z,78.05
2023-08-15T21:08:28.689Z,78.15
2023-08-15T21:10:57.061Z,78.08
2023-08-15T21:13:26.744Z,78.07
2023-08-15T21:15:55.245Z,78.06
2023-08-15T21:18:23.556Z,78.07
2023-08-15T21:20:52.248Z,78.02
2023-08-15T21:23:20.497Z,78.13
2023-08-15T21:25:48.901Z,78.04
2023-08-15T21:28:17.485Z,78.13
2023-08-15T21:30:45.791Z,78.26
2023-08-15T21:33:14.380Z,78.41
2023-08-15T21:35:43.311Z,78.41
2023-08-15T21:38:11.660Z,78.35
2023-08-15T21:40:44.694Z,78.25
2023-08-15T21:43:13.247Z,78.22
2023-08-15T21:45:47.232Z,78.23
2023-08-15T21:48:15.590Z,78.21
2023-08-15T21:50:44.045Z,78.33
2023-08-15T21:53:12.423Z,78.36
2023-08-15T21:55:40.720Z,78.34
2023-08-15T21:58:08.960Z,78.30
2023-08-15T22:00:37.790Z,78.37
2023-08-15T22:03:06.337Z,78.46
2023-08-15T22:05:35.064Z,78.54
2023-08-15T22:08:03.781Z,78.46
2023-08-15T22:10:32.168Z,78.14
2023-08-15T22:13:01.213Z,78.02
2023-08-15T22:15:30.292Z,78.09
2023-08-15T22:18:13.223Z,78.24
2023-08-15T22:20:48.078Z,78.20
2023-08-15T22:23:16.630Z,78.08
2023-08-15T22:25:46.821Z,77.97
2023-08-15T22:28:16.779Z,77.95
2023-08-15T22:30:45.510Z,77.85
2023-08-15T22:33:14.024Z,77.85
2023-08-15T22:35:43.858Z,77.90
2023-08-15T22:38:12.751Z,78.02
2023-08-15T22:40:41.318Z,78.08
2023-08-15T22:43:10.713Z,78.16
2023-08-15T22:45:39.404Z,77.99
2023-08-15T22:48:07.850Z,77.84
2023-08-15T22:50:36.321Z,77.79
2023-08-15T22:53:05.188Z,77.81
2023-08-15T22:55:33.459Z,77.96
2023-08-15T22:58:01.845Z,77.98
2023-08-15T23:00:30.034Z,78.00
2023-08-15T23:02:58.374Z,77.90
2023-08-15T23:05:26.858Z,78.05
2023-08-15T23:07:55.180Z,78.29
2023-08-15T23:10:23.382Z,78.38
2023-08-15T23:12:52.000Z,78.50
2023-08-15T23:15:21.014Z,78.73
2023-08-15T23:17:49.451Z,78.85
2023-08-15T23:20:18.096Z,78.73
2023-08-15T23:22:48.355Z,78.61
2023-08-15T23:25:16.793Z,78.55
2023-08-15T23:27:45.418Z,78.48
2023-08-15T23:30:15.485Z,78.29
2023-08-15T23:32:43.820Z,77.87
2023-08-15T23:35:15.183Z,77.39
2023-08-15T23:37:45.318Z,77.09
2023-08-15T23:40:14.745Z,76.75
2023-08-15T23:42:43.137Z,76.38
2023-08-15T23:45:11.849Z,76.18
2023-08-15T23:47:41.488Z,76.04
2023-08-15T23:50:10.793Z,75.87
2023-08-15T23:52:39.032Z,75.78
2023-08-15T23:55:07.745Z,75.75
2023-08-15T23:57:36.069Z,75.69
